AF7657 / F-HBLJ 7700 Squawk Report (21st of May, 2022)

Time Lat Lon Altitude Heading Speed Vertical Rate
2022-05-21 13:44:13 GMT 49.001644 2.594921 0 354 16 0
2022-05-21 13:43:52 GMT 49.000675 2.593821 0 84 20 0
2022-05-21 13:41:52 GMT 48.999733 2.576188 0 87 23 0
2022-05-21 13:41:47 GMT 48.999699 2.575308 0 87 22 0
2022-05-21 13:41:40 GMT 48.999653 2.574360 0 84 22 0
2022-05-21 13:41:37 GMT 48.999630 2.574040 0 84 21 0
2022-05-21 13:41:34 GMT 48.999603 2.573547 0 84 21 0
2022-05-21 13:41:33 GMT 48.999596 2.573331 0 84 21 0
2022-05-21 13:41:31 GMT 48.999573 2.573125 0 84 20 0
2022-05-21 13:41:27 GMT 48.999523 2.572102 0 84 19 0
2022-05-21 13:41:24 GMT 48.999523 2.572102 0 84 19 0
2022-05-21 13:41:21 GMT 48.999504 2.571752 0 84 19 0
2022-05-21 13:41:19 GMT 48.999481 2.571399 0 84 19 0
2022-05-21 13:41:14 GMT 48.999447 2.570678 0 84 18 0
2022-05-21 13:41:11 GMT 48.999424 2.570378 0 84 18 0
2022-05-21 13:41:09 GMT 48.999413 2.570132 0 84 17 0
2022-05-21 13:41:05 GMT 48.999386 2.569735 0 84 17 0
2022-05-21 13:41:04 GMT 48.999367 2.569427 0 84 16 0
2022-05-21 13:41:01 GMT 48.999367 2.569251 0 84 16 0
2022-05-21 13:40:58 GMT 48.999344 2.568882 0 84 15 0
2022-05-21 13:40:56 GMT 48.999325 2.568687 0 84 15 0
2022-05-21 13:40:53 GMT 48.999302 2.568054 0 84 14 0
2022-05-21 13:40:50 GMT 48.999302 2.568054 0 84 14 0
2022-05-21 13:40:48 GMT 48.999290 2.567910 0 84 13 0
2022-05-21 13:40:44 GMT 48.999268 2.567512 0 87 13 0
2022-05-21 13:40:40 GMT 48.999256 2.567259 0 84 13 0
2022-05-21 13:37:53 GMT 48.994263 2.591083 75 266 127 64
2022-05-21 13:37:47 GMT 48.994507 2.595809 75 266 130 -64
2022-05-21 13:37:41 GMT 48.994812 2.601858 100 267 134 -704
2022-05-21 13:37:39 GMT 48.994881 2.603254 125 267 134 -704
2022-05-21 13:37:38 GMT 48.994949 2.604182 150 267 134 -704
2022-05-21 13:37:34 GMT 48.995113 2.607807 200 266 135 -704
2022-05-21 13:37:32 GMT 48.995205 2.609687 200 266 135 -768
2022-05-21 13:37:31 GMT 48.995300 2.611638 225 266 135 -768
2022-05-21 13:37:29 GMT 48.995361 2.612563 250 266 135 -768
2022-05-21 13:37:27 GMT 48.995438 2.614312 275 266 136 -704
2022-05-21 13:37:26 GMT 48.995499 2.615239 275 266 133 -768
2022-05-21 13:37:25 GMT 48.995533 2.616192 300 266 133 -768
2022-05-21 13:37:23 GMT 48.995670 2.618794 300 266 133 -768
2022-05-21 13:37:21 GMT 48.995728 2.619817 325 266 133 -768
2022-05-21 13:37:20 GMT 48.995819 2.621225 350 266 132 -768
2022-05-21 13:37:19 GMT 48.995865 2.622070 350 266 131 -768
2022-05-21 13:37:15 GMT 48.996090 2.626238 400 266 132 -832
2022-05-21 13:37:13 GMT 48.996185 2.628268 450 266 132 -832
2022-05-21 13:37:12 GMT 48.996231 2.629113 450 266 133 -576
2022-05-21 13:37:11 GMT 48.996323 2.631515 475 266 133 -576
2022-05-21 13:37:09 GMT 48.996323 2.631515 475 266 134 -576
2022-05-21 13:37:08 GMT 48.996464 2.633755 500 266 134 -512
2022-05-21 13:37:06 GMT 48.996506 2.634676 500 266 134 -576
2022-05-21 13:37:04 GMT 48.996643 2.636578 525 266 133 -768
2022-05-21 13:37:02 GMT 48.996788 2.639393 550 265 133 -704
2022-05-21 13:37:00 GMT 48.996826 2.640381 575 265 133 -704
2022-05-21 13:36:57 GMT 48.996964 2.642564 600 266 132 -640
2022-05-21 13:36:55 GMT 48.997101 2.645170 650 266 132 -640
2022-05-21 13:36:54 GMT 48.997192 2.647071 650 266 132 -576
2022-05-21 13:36:50 GMT 48.997299 2.649078 675 266 132 -704
2022-05-21 13:36:49 GMT 48.997395 2.650524 700 266 131 -768
2022-05-21 13:36:47 GMT 48.997421 2.651508 700 266 131 -768
2022-05-21 13:36:46 GMT 48.997486 2.652403 725 266 131 -768
2022-05-21 13:36:44 GMT 48.997581 2.654644 750 265 131 -832
2022-05-21 13:36:43 GMT 48.997719 2.656451 800 265 131 -768
2022-05-21 13:36:41 GMT 48.997742 2.657424 800 265 131 -768
2022-05-21 13:36:40 GMT 48.997833 2.658480 800 265 131 -768
2022-05-21 13:36:38 GMT 48.997906 2.660137 850 265 131 -768
2022-05-21 13:36:37 GMT 48.997971 2.661015 850 265 130 -768
2022-05-21 13:36:36 GMT 48.998154 2.663903 875 265 130 -704
2022-05-21 13:36:34 GMT 48.998234 2.665269 900 266 131 -768
2022-05-21 13:36:31 GMT 48.998291 2.666579 925 266 131 -704
2022-05-21 13:36:29 GMT 48.998428 2.668762 950 266 131 -704
2022-05-21 13:36:27 GMT 48.998566 2.671720 975 266 131 -576
2022-05-21 13:36:25 GMT 48.998604 2.672280 975 266 131 -576
2022-05-21 13:36:22 GMT 48.998886 2.676861 1,025 265 131 -576
2022-05-21 13:36:20 GMT 48.998886 2.676861 1,050 265 131 -768
2022-05-21 13:36:19 GMT 48.998978 2.679115 1,050 266 132 -832
2022-05-21 13:36:17 GMT 48.999023 2.680014 1,075 266 132 -704
2022-05-21 13:36:16 GMT 48.999069 2.680946 1,100 266 132 -704
2022-05-21 13:36:15 GMT 48.999165 2.682254 1,100 266 133 -640
2022-05-21 13:36:12 GMT 48.999348 2.685651 1,150 266 134 -704
2022-05-21 13:36:10 GMT 48.999397 2.686446 1,150 266 134 -704
2022-05-21 13:36:08 GMT 48.999489 2.688326 1,175 266 135 -512
2022-05-21 13:36:07 GMT 48.999535 2.689121 1,175 266 135 -576
2022-05-21 13:36:06 GMT 48.999630 2.691000 1,200 266 136 -640
2022-05-21 13:36:04 GMT 48.999664 2.692003 1,200 266 136 -576
2022-05-21 13:36:02 GMT 48.999767 2.694036 1,225 265 136 -768
2022-05-21 13:36:01 GMT 48.999847 2.695101 1,250 265 137 -768
2022-05-21 13:36:00 GMT 48.999893 2.696158 1,250 265 137 -704
2022-05-21 13:35:58 GMT 49.000031 2.698130 1,275 266 138 -768
2022-05-21 13:35:56 GMT 49.000095 2.699890 1,300 266 140 -832
2022-05-21 13:35:55 GMT 49.000168 2.700876 1,325 266 140 -832
2022-05-21 13:35:53 GMT 49.000351 2.703975 1,350 266 143 -768
2022-05-21 13:35:51 GMT 49.000511 2.706973 1,400 266 144 -704
2022-05-21 13:35:49 GMT 49.000511 2.706973 1,400 266 145 -704
2022-05-21 13:35:47 GMT 49.000652 2.709937 1,425 267 147 -768
2022-05-21 13:35:46 GMT 49.000652 2.709937 1,425 267 147 -832
2022-05-21 13:35:44 GMT 49.000698 2.711527 1,450 266 151 -960
2022-05-21 13:35:42 GMT 49.000839 2.714129 1,500 266 151 -960
2022-05-21 13:35:41 GMT 49.000931 2.716153 1,575 266 153 -896
2022-05-21 13:35:37 GMT 49.001129 2.719539 1,575 266 156 -960
2022-05-21 13:35:35 GMT 49.001266 2.721722 1,600 266 159 -960
2022-05-21 13:35:33 GMT 49.001396 2.724176 1,625 266 162 -896
2022-05-21 13:35:32 GMT 49.001450 2.725243 1,650 266 162 -896
2022-05-21 13:35:29 GMT 49.001541 2.727919 1,700 266 163 -1024
2022-05-21 13:35:28 GMT 49.001629 2.729091 1,725 266 163 -960
2022-05-21 13:35:27 GMT 49.001770 2.732638 1,750 266 163 -768
2022-05-21 13:35:25 GMT 49.001770 2.732638 1,750 266 162 -960
2022-05-21 13:35:23 GMT 49.001862 2.734222 1,775 266 162 -896
2022-05-21 13:35:22 GMT 49.002003 2.736463 1,800 266 163 -704
2022-05-21 13:35:21 GMT 49.002048 2.737403 1,800 266 163 -704
2022-05-21 13:35:20 GMT 49.002136 2.739821 1,825 266 163 -640
2022-05-21 13:35:17 GMT 49.002235 2.741956 1,850 267 162 -896
2022-05-21 13:35:16 GMT 49.002377 2.744269 1,875 266 162 -960
2022-05-21 13:35:13 GMT 49.002514 2.747883 1,925 266 162 -896
2022-05-21 13:35:10 GMT 49.002609 2.750196 1,950 266 162 -896
2022-05-21 13:35:08 GMT 49.002777 2.752568 1,975 266 164 -640
2022-05-21 13:35:06 GMT 49.002888 2.754749 2,000 266 166 -640
2022-05-21 13:35:04 GMT 49.002979 2.757135 2,000 266 166 -832
2022-05-21 13:35:02 GMT 49.003307 2.763278 2,125 266 170 -960
2022-05-21 13:34:58 GMT 49.003307 2.763278 2,125 266 174 -1024
2022-05-21 13:34:55 GMT 49.003540 2.768193 2,175 266 177 -1024
2022-05-21 13:34:52 GMT 49.003723 2.771735 2,225 266 178 -896
2022-05-21 13:34:47 GMT 49.004005 2.776722 2,300 266 180 -1152
2022-05-21 13:34:45 GMT 49.004196 2.780527 2,350 266 181 -832
2022-05-21 13:34:43 GMT 49.004330 2.782794 2,375 266 181 -1024
2022-05-21 13:34:41 GMT 49.004421 2.784745 2,400 266 181 -1088
2022-05-21 13:34:37 GMT 49.004658 2.789443 2,475 266 182 -1024
2022-05-21 13:34:33 GMT 49.004982 2.796093 2,550 266 183 -896
2022-05-21 13:34:26 GMT 49.005432 2.804612 2,650 266 187 -1024
2022-05-21 13:34:23 GMT 49.005589 2.808019 2,700 267 189 -1088
2022-05-21 13:34:21 GMT 49.005726 2.811199 2,725 266 190 -1088
2022-05-21 13:34:16 GMT 49.006054 2.817632 2,800 266 192 -960
2022-05-21 13:34:14 GMT 49.006119 2.819543 2,850 266 193 -1088
2022-05-21 13:34:12 GMT 49.006287 2.822980 2,875 266 194 -1024
2022-05-21 13:34:09 GMT 49.006474 2.826883 2,925 266 194 -1088
2022-05-21 13:34:06 GMT 49.006668 2.831092 2,975 267 196 -1152
2022-05-21 13:34:04 GMT 49.006805 2.834402 3,025 266 197 -960
2022-05-21 13:34:00 GMT 49.007080 2.839262 3,075 266 197 -1088
2022-05-21 13:33:56 GMT 49.007355 2.845242 3,150 266 199 -1216
2022-05-21 13:33:54 GMT 49.007492 2.848276 3,200 267 200 -1152
2022-05-21 13:33:52 GMT 49.007587 2.851314 3,250 267 201 -1152
2022-05-21 13:33:50 GMT 49.007675 2.852854 3,250 267 201 -1152
2022-05-21 13:33:44 GMT 49.008102 2.862661 3,400 267 203 -1024
2022-05-21 13:33:42 GMT 49.008286 2.867865 3,450 267 204 -1024
2022-05-21 13:33:34 GMT 49.008614 2.877262 3,550 267 207 -896
2022-05-21 13:33:31 GMT 49.008755 2.881381 3,600 267 211 -704
2022-05-21 13:33:23 GMT 49.009171 2.892657 3,700 268 213 -768
2022-05-21 13:33:21 GMT 49.009277 2.895954 3,725 268 214 -832
2022-05-21 13:33:19 GMT 49.009369 2.898348 3,725 267 215 -384
2022-05-21 13:33:13 GMT 49.009823 2.907908 3,750 266 220 -128
2022-05-21 13:33:11 GMT 49.010010 2.911594 3,750 265 223 -64
2022-05-21 13:33:03 GMT 49.010880 2.923983 3,750 277 232 384
2022-05-21 13:33:00 GMT 49.011337 2.929124 3,750 263 231 -128
2022-05-21 13:32:53 GMT 49.012337 2.939855 3,750 263 233 -320
2022-05-21 13:32:50 GMT 49.012711 2.944125 3,750 265 234 192
2022-05-21 13:32:43 GMT 49.012939 2.958562 3,725 279 231 256
2022-05-21 13:32:39 GMT 49.012665 2.962116 3,725 280 232 192
2022-05-21 13:32:33 GMT 49.010242 2.972597 3,750 298 232 0
2022-05-21 13:32:29 GMT 49.008499 2.977436 3,750 301 232 192
2022-05-21 13:32:22 GMT 49.004421 2.987920 3,750 301 233 0
2022-05-21 13:32:20 GMT 49.001907 2.994479 3,750 301 234 256
2022-05-21 13:32:11 GMT 48.997021 3.007218 3,750 301 236 -64
2022-05-21 13:32:08 GMT 48.997021 3.007218 3,750 301 236 -128
2022-05-21 13:32:01 GMT 48.993298 3.016542 3,750 303 241 64
2022-05-21 13:31:59 GMT 48.991203 3.021529 3,750 305 244 128
2022-05-21 13:31:51 GMT 48.985748 3.031663 3,750 315 251 -64
2022-05-21 13:31:49 GMT 48.984695 3.033072 3,750 320 253 -448
2022-05-21 13:31:47 GMT 48.982635 3.035479 3,750 326 257 0
2022-05-21 13:31:42 GMT 48.977425 3.040683 3,750 336 263 -192
2022-05-21 13:31:40 GMT 48.975082 3.042509 3,750 341 266 -384
2022-05-21 13:31:35 GMT 48.969498 3.045537 3,775 346 268 -704
2022-05-21 13:31:31 GMT 48.964947 3.046827 3,825 355 271 -896
2022-05-21 13:31:28 GMT 48.958557 3.047086 3,975 359 272 -1280
2022-05-21 13:31:22 GMT 48.952423 3.045887 4,050 12 274 -1600
2022-05-21 13:31:20 GMT 48.950592 3.045185 4,100 17 275 -1408
2022-05-21 13:31:17 GMT 48.947662 3.043847 4,150 19 275 -1408
2022-05-21 13:31:12 GMT 48.940971 3.039093 4,300 31 275 -1600
2022-05-21 13:31:10 GMT 48.936218 3.034058 4,450 43 275 -1344
2022-05-21 13:31:07 GMT 48.936218 3.034058 4,425 39 276 -1344
2022-05-21 13:31:01 GMT 48.930817 3.025888 4,650 51 276 -1408
2022-05-21 13:30:59 GMT 48.928986 3.022156 4,600 53 277 -1472
2022-05-21 13:30:57 GMT 48.927937 3.019795 4,650 58 277 -1536
2022-05-21 13:30:51 GMT 48.923447 3.004479 4,825 73 278 -1344
2022-05-21 13:30:49 GMT 48.923447 3.004479 4,850 75 278 -1408
2022-05-21 13:30:47 GMT 48.923004 3.001870 4,875 77 278 -1472
2022-05-21 13:30:40 GMT 48.921932 2.986330 5,075 88 280 -1536
2022-05-21 13:30:37 GMT 48.921886 2.982354 5,125 89 281 -1472
2022-05-21 13:30:34 GMT 48.921753 2.968492 5,325 89 282 -1472
2022-05-21 13:30:31 GMT 48.921753 2.968492 5,325 89 282 -1472
2022-05-21 13:30:27 GMT 48.921707 2.962154 5,400 89 282 -1600
2022-05-21 13:30:21 GMT 48.921616 2.950322 5,550 89 282 -1472
2022-05-21 13:30:19 GMT 48.921524 2.945463 5,600 88 282 -1472
2022-05-21 13:30:17 GMT 48.921478 2.938350 5,700 89 282 -1472
2022-05-21 13:30:10 GMT 48.921421 2.929302 5,825 89 281 -1920
2022-05-21 13:30:07 GMT 48.921341 2.922575 5,975 89 282 -1344
2022-05-21 13:30:05 GMT 48.921204 2.909828 6,025 88 284 -576
2022-05-21 13:30:01 GMT 48.921204 2.909828 6,025 88 285 -320
2022-05-21 13:29:58 GMT 48.921158 2.905039 6,050 89 286 -1088
2022-05-21 13:29:56 GMT 48.921112 2.901024 6,075 89 287 -1216
2022-05-21 13:29:51 GMT 48.920956 2.884417 6,225 89 290 -1408
2022-05-21 13:29:48 GMT 48.920956 2.884417 6,250 89 290 -1472
2022-05-21 13:29:46 GMT 48.920929 2.879967 6,300 89 290 -1472
2022-05-21 13:29:40 GMT 48.920792 2.868699 6,400 89 292 -896
2022-05-21 13:29:38 GMT 48.920769 2.864830 6,450 89 293 -1216
2022-05-21 13:29:36 GMT 48.920677 2.857457 6,525 89 293 -1344
2022-05-21 13:29:30 GMT 48.920563 2.843839 6,675 89 295 -1408
2022-05-21 13:29:28 GMT 48.920563 2.843839 6,675 89 295 -1344
2022-05-21 13:29:26 GMT 48.920490 2.838448 6,725 89 296 -1216
2022-05-21 13:29:24 GMT 48.920471 2.835529 6,825 89 299 -1344
2022-05-21 13:29:21 GMT 48.920349 2.828474 6,850 89 298 -1152
2022-05-21 13:29:18 GMT 48.920288 2.822148 6,850 89 298 -1152
2022-05-21 13:29:15 GMT 48.920258 2.815897 6,925 89 299 -1472
2022-05-21 13:29:10 GMT 48.920116 2.805778 7,050 89 300 -1600
2022-05-21 13:29:08 GMT 48.920013 2.793556 7,225 89 301 -1408
2022-05-21 13:29:05 GMT 48.920013 2.793556 7,225 89 302 -1280
2022-05-21 13:29:03 GMT 48.919979 2.791467 7,250 88 308 -1280
2022-05-21 13:28:59 GMT 48.919876 2.781583 7,325 88 303 -1216
2022-05-21 13:28:57 GMT 48.919830 2.778133 7,375 89 304 -1280
2022-05-21 13:28:54 GMT 48.919785 2.772217 7,425 89 305 -1408
2022-05-21 13:28:50 GMT 48.919651 2.762483 7,525 89 305 -1408
2022-05-21 13:28:48 GMT 48.919647 2.759470 7,550 89 305 -1408
2022-05-21 13:28:45 GMT 48.919559 2.752075 7,650 88 307 -1344
2022-05-21 13:28:43 GMT 48.919514 2.748534 7,675 88 307 -1344
2022-05-21 13:28:39 GMT 48.919373 2.738342 7,775 89 309 -1216
2022-05-21 13:28:35 GMT 48.919327 2.731187 7,850 89 309 -1216
2022-05-21 13:28:33 GMT 48.919277 2.727645 7,925 89 311 -1216
2022-05-21 13:28:30 GMT 48.919144 2.716018 7,975 89 312 -1216
2022-05-21 13:28:25 GMT 48.919052 2.708834 8,050 88 314 -1152
2022-05-21 13:28:22 GMT 48.918999 2.704010 8,100 88 314 -1152
2022-05-21 13:28:20 GMT 48.918953 2.699746 8,125 88 315 -1088
2022-05-21 13:28:18 GMT 48.918861 2.693385 8,175 88 317 -1024
2022-05-21 13:28:15 GMT 48.918823 2.687636 8,250 88 318 -1216
2022-05-21 13:28:13 GMT 48.918732 2.681368 8,275 88 318 -1280
2022-05-21 13:28:11 GMT 48.918686 2.677777 8,350 89 319 -1408
2022-05-21 13:28:08 GMT 48.918594 2.670664 8,475 89 320 -1600
2022-05-21 13:28:05 GMT 48.918549 2.663480 8,475 89 320 -1600
2022-05-21 13:28:01 GMT 48.918488 2.657607 8,675 89 320 -1536
2022-05-21 13:27:58 GMT 48.918396 2.649440 8,875 89 322 -1600
2022-05-21 13:27:55 GMT 48.918301 2.640694 8,725 89 321 -1536
2022-05-21 13:27:51 GMT 48.918182 2.632916 8,825 89 322 -1600
2022-05-21 13:27:49 GMT 48.918163 2.628696 8,875 89 322 -1664
2022-05-21 13:27:47 GMT 48.918118 2.625299 8,925 89 323 -1664
2022-05-21 13:27:44 GMT 48.918022 2.617854 9,000 89 323 -1600
2022-05-21 13:27:40 GMT 48.917953 2.608549 9,075 89 324 -1408
2022-05-21 13:27:38 GMT 48.917862 2.603056 9,200 88 326 -1152
2022-05-21 13:27:34 GMT 48.917770 2.594675 9,200 88 325 -1216
2022-05-21 13:27:29 GMT 48.917633 2.581787 9,325 88 327 -1216
2022-05-21 13:27:27 GMT 48.917603 2.579763 9,350 88 328 -1280
2022-05-21 13:27:24 GMT 48.917496 2.570801 9,400 88 328 -1408
2022-05-21 13:27:19 GMT 48.917370 2.559381 9,575 88 330 -1600
2022-05-21 13:27:14 GMT 48.917233 2.548105 9,700 88 331 -1536
2022-05-21 13:27:10 GMT 48.917137 2.539649 9,775 89 331 -1536
2022-05-21 13:27:08 GMT 48.917084 2.533616 9,850 89 332 -1600
2022-05-21 13:27:05 GMT 48.917000 2.526494 9,950 88 332 -1600
2022-05-21 13:27:01 GMT 48.916901 2.517841 10,025 88 332 -1600
2022-05-21 13:26:58 GMT 48.916813 2.510521 10,125 88 333 -1536
2022-05-21 13:26:55 GMT 48.916718 2.502629 10,200 88 333 -1472
2022-05-21 13:26:53 GMT 48.916672 2.500185 10,225 88 334 -1408
2022-05-21 13:26:51 GMT 48.916626 2.494108 10,275 88 334 -1408
2022-05-21 13:26:47 GMT 48.916485 2.486380 10,550 88 334 -1536
2022-05-21 13:26:45 GMT 48.916351 2.480023 10,425 87 335 -1600
2022-05-21 13:26:43 GMT 48.916260 2.475304 10,475 87 335 -1664
2022-05-21 13:26:41 GMT 48.916115 2.470117 10,550 87 335 -1728
2022-05-21 13:26:39 GMT 48.915836 2.461588 10,625 87 335 -1728
2022-05-21 13:26:37 GMT 48.915836 2.461588 10,625 87 335 -1728
2022-05-21 13:26:34 GMT 48.915619 2.455515 10,725 86 335 -1664
2022-05-21 13:26:32 GMT 48.915436 2.449810 10,800 86 335 -1600
2022-05-21 13:26:30 GMT 48.915207 2.445092 10,875 86 335 -1600
2022-05-21 13:26:27 GMT 48.914906 2.438025 10,925 85 336 -1600
2022-05-21 13:26:24 GMT 48.914673 2.432460 11,000 85 337 -1664
2022-05-21 13:26:22 GMT 48.914108 2.421570 11,075 85 337 -1664
2022-05-21 13:26:20 GMT 48.914108 2.421570 11,150 85 337 -1664
2022-05-21 13:26:17 GMT 48.913692 2.414462 11,200 85 337 -1600
2022-05-21 13:26:13 GMT 48.913136 2.403982 11,300 85 338 -1472
2022-05-21 13:26:10 GMT 48.912735 2.397062 11,375 85 338 -1472
2022-05-21 13:26:08 GMT 48.912460 2.392343 11,450 85 339 -1408
2022-05-21 13:26:04 GMT 48.912048 2.384526 11,500 85 339 -1472
2022-05-21 13:26:01 GMT 48.911598 2.376372 11,575 85 340 -1472
2022-05-21 13:25:58 GMT 48.911133 2.368469 11,650 85 341 -1472
2022-05-21 13:25:53 GMT 48.910583 2.357905 11,750 85 342 -1472
2022-05-21 13:25:51 GMT 48.910217 2.351990 11,825 85 343 -1472
2022-05-21 13:25:47 GMT 48.909805 2.344243 11,925 85 344 -1472
2022-05-21 13:25:44 GMT 48.909393 2.336567 12,000 85 345 -1472
2022-05-21 13:25:42 GMT 48.909119 2.331707 12,075 85 345 -1536
2022-05-21 13:25:39 GMT 48.908665 2.323536 12,100 85 345 -1536
2022-05-21 13:25:37 GMT 48.908478 2.320158 12,175 85 346 -1536
2022-05-21 13:25:34 GMT 48.907974 2.311636 12,275 85 346 -1472
2022-05-21 13:25:32 GMT 48.907734 2.307057 12,325 85 347 -1472
2022-05-21 13:25:30 GMT 48.907425 2.301706 12,350 85 347 -1472
2022-05-21 13:25:27 GMT 48.907059 2.294945 12,475 85 348 -1472
2022-05-21 13:25:24 GMT 48.906326 2.282269 12,500 85 349 -1472
2022-05-21 13:25:22 GMT 48.906326 2.282269 12,525 85 349 -1472
2022-05-21 13:25:17 GMT 48.905182 2.261775 12,675 85 349 -1472
2022-05-21 13:25:14 GMT 48.905182 2.261775 12,725 85 349 -1472
2022-05-21 13:25:12 GMT 48.904953 2.257902 12,750 85 349 -1472
2022-05-21 13:25:10 GMT 48.904678 2.253183 12,800 85 349 -1472
2022-05-21 13:25:07 GMT 48.904266 2.246141 12,875 85 349 -1344
2022-05-21 13:25:04 GMT 48.903854 2.238253 13,000 85 346 64
2022-05-21 13:25:00 GMT 48.903313 2.228996 12,975 85 347 -384
2022-05-21 13:24:56 GMT 48.902428 2.213528 13,000 85 347 0
2022-05-21 13:24:53 GMT 48.902428 2.213528 13,000 85 346 64
2022-05-21 13:24:49 GMT 48.901821 2.202831 13,000 85 346 64
2022-05-21 13:24:46 GMT 48.901356 2.194085 13,000 85 346 64
2022-05-21 13:24:43 GMT 48.901077 2.189243 13,000 85 346 64
2022-05-21 13:24:40 GMT 48.900604 2.180997 13,000 85 347 -192
2022-05-21 13:24:37 GMT 48.900146 2.173251 13,000 85 347 -320
2022-05-21 13:24:35 GMT 48.899872 2.168321 13,025 85 348 -576
2022-05-21 13:24:32 GMT 48.899307 2.157946 13,050 85 349 -896
2022-05-21 13:24:30 GMT 48.898796 2.149273 13,100 85 349 -1216
2022-05-21 13:24:27 GMT 48.898796 2.149273 13,175 85 350 -1472
2022-05-21 13:24:23 GMT 48.898239 2.139587 13,275 85 351 -1536
2022-05-21 13:24:20 GMT 48.897820 2.131564 13,350 85 352 -1536
2022-05-21 13:24:17 GMT 48.897354 2.123686 13,425 85 352 -1536
2022-05-21 13:24:15 GMT 48.897121 2.119855 13,450 85 352 -1536
2022-05-21 13:24:12 GMT 48.896515 2.108941 13,750 85 353 -1472
2022-05-21 13:24:10 GMT 48.896515 2.108941 13,575 85 353 -1472
2022-05-21 13:24:07 GMT 48.895676 2.094124 13,700 85 353 -1536
2022-05-21 13:24:05 GMT 48.895676 2.094124 13,725 85 354 -1536
2022-05-21 13:24:02 GMT 48.895351 2.088197 13,900 85 355 -1536
2022-05-21 13:23:59 GMT 48.895065 2.082754 13,850 85 355 -1536
2022-05-21 13:23:57 GMT 48.894608 2.075187 13,950 85 355 -1536
2022-05-21 13:23:55 GMT 48.894047 2.064201 14,200 85 358 -1536
2022-05-21 13:23:52 GMT 48.894047 2.064201 14,100 85 357 -1536
2022-05-21 13:23:49 GMT 48.893600 2.055641 14,100 85 357 -1536
2022-05-21 13:23:46 GMT 48.893097 2.046697 14,200 85 358 -1536
2022-05-21 13:23:44 GMT 48.892883 2.043096 14,250 84 358 -1536
2022-05-21 13:23:42 GMT 48.892639 2.038809 14,275 84 358 -1536
2022-05-21 13:23:39 GMT 48.892139 2.031170 14,350 84 359 -1664
2022-05-21 13:23:36 GMT 48.891720 2.024231 14,425 84 360 -1536
2022-05-21 13:23:33 GMT 48.890976 2.014040 14,550 81 361 -1600
2022-05-21 13:23:29 GMT 48.890030 2.005639 14,625 78 361 -1792
2022-05-21 13:23:25 GMT 48.887344 1.989537 14,800 73 361 -1856
2022-05-21 13:23:23 GMT 48.887344 1.989537 14,825 72 361 -1792
2022-05-21 13:23:19 GMT 48.885342 1.980936 14,900 70 360 -1344
2022-05-21 13:23:15 GMT 48.883118 1.972821 14,950 63 357 -576
2022-05-21 13:23:13 GMT 48.881016 1.966119 15,000 63 357 -512
2022-05-21 13:23:09 GMT 48.878357 1.958595 15,000 59 354 -128
2022-05-21 13:23:05 GMT 48.874969 1.950214 15,000 52 350 64
2022-05-21 13:23:02 GMT 48.872726 1.945214 15,000 52 350 64
2022-05-21 13:23:00 GMT 48.865700 1.931787 15,000 50 349 128
2022-05-21 13:22:55 GMT 48.861099 1.924298 15,000 45 346 -64
2022-05-21 13:22:52 GMT 48.861099 1.924298 15,000 45 346 -64
2022-05-21 13:22:49 GMT 48.857738 1.919283 15,000 44 345 64
2022-05-21 13:22:46 GMT 48.854897 1.915163 15,000 44 347 -64
2022-05-21 13:22:43 GMT 48.850849 1.909091 15,000 44 347 -128
2022-05-21 13:22:41 GMT 48.849243 1.906762 15,000 44 347 -128
2022-05-21 13:22:38 GMT 48.845490 1.901269 15,025 44 347 -320
2022-05-21 13:22:34 GMT 48.838120 1.890423 15,100 44 345 -1024
2022-05-21 13:22:31 GMT 48.834229 1.884661 15,150 44 345 -1024
2022-05-21 13:22:28 GMT 48.834229 1.884661 15,150 44 345 -1024
2022-05-21 13:22:24 GMT 48.828918 1.876901 15,225 44 345 -1024
2022-05-21 13:22:21 GMT 48.822922 1.868098 15,300 43 345 -1024
2022-05-21 13:22:18 GMT 48.822922 1.868098 15,325 43 345 -1024
2022-05-21 13:22:15 GMT 48.819939 1.863773 15,400 44 346 -1024
2022-05-21 13:22:11 GMT 48.814636 1.855985 15,425 44 346 -1024
2022-05-21 13:22:06 GMT 48.808857 1.847510 15,525 43 350 -1024
2022-05-21 13:22:04 GMT 48.807137 1.844980 15,650 43 350 -1024
2022-05-21 13:22:01 GMT 48.803055 1.839013 15,625 44 349 -1024
2022-05-21 13:21:58 GMT 48.799438 1.833731 15,650 43 350 -1024
2022-05-21 13:21:56 GMT 48.796429 1.829296 15,750 44 352 -1024
2022-05-21 13:21:52 GMT 48.792099 1.823008 15,750 44 353 -1024
2022-05-21 13:21:50 GMT 48.790237 1.820261 15,800 43 354 -1024
2022-05-21 13:21:48 GMT 48.788422 1.817659 15,850 43 355 -1024
2022-05-21 13:21:46 GMT 48.786209 1.814364 15,850 43 355 -1024
2022-05-21 13:21:42 GMT 48.780834 1.806528 15,925 44 359 -1024
2022-05-21 13:21:40 GMT 48.778366 1.802914 15,950 43 359 -1024
2022-05-21 13:21:38 GMT 48.775524 1.798722 16,000 43 361 -1024
2022-05-21 13:21:35 GMT 48.772129 1.793807 16,050 43 362 -1024
2022-05-21 13:21:32 GMT 48.768539 1.788518 16,075 43 364 -1024
2022-05-21 13:21:29 GMT 48.765842 1.784556 16,125 44 367 -1024
2022-05-21 13:21:25 GMT 48.760345 1.776546 16,200 44 372 -1024
2022-05-21 13:21:21 GMT 48.754669 1.768221 16,275 44 372 -960
2022-05-21 13:21:16 GMT 48.748619 1.759403 16,350 44 376 -1024
2022-05-21 13:21:12 GMT 48.743591 1.752030 16,425 44 378 -960
2022-05-21 13:21:10 GMT 48.741394 1.748869 16,475 44 381 -1024
2022-05-21 13:21:07 GMT 48.737823 1.743587 16,475 44 381 -1024
2022-05-21 13:21:05 GMT 48.734711 1.739079 16,575 44 385 -1024
2022-05-21 13:21:02 GMT 48.730835 1.733455 16,575 44 386 -1088
2022-05-21 13:21:00 GMT 48.729034 1.730769 16,600 43 390 -1024
2022-05-21 13:20:57 GMT 48.725159 1.725143 16,825 43 391 -1024
2022-05-21 13:20:53 GMT 48.720501 1.718276 16,725 43 393 -1088
2022-05-21 13:20:51 GMT 48.717087 1.713304 16,775 43 394 -1024
2022-05-21 13:20:48 GMT 48.712727 1.706928 16,875 43 398 -1024
2022-05-21 13:20:45 GMT 48.708618 1.700979 16,875 43 400 -1024
2022-05-21 13:20:42 GMT 48.706257 1.697460 16,900 43 403 -1024
2022-05-21 13:20:40 GMT 48.702759 1.692388 16,925 43 403 -1024
2022-05-21 13:20:37 GMT 48.698250 1.685823 17,000 44 406 -960
2022-05-21 13:20:34 GMT 48.694942 1.680980 17,075 44 410 -1024
2022-05-21 13:20:31 GMT 48.689758 1.673443 17,100 44 411 -1024
2022-05-21 13:20:26 GMT 48.684265 1.665415 17,150 44 411 -1024
2022-05-21 13:20:23 GMT 48.680279 1.659586 17,300 43 412 -1024
2022-05-21 13:20:20 GMT 48.674740 1.651563 17,275 43 412 -1024
2022-05-21 13:20:17 GMT 48.670670 1.645625 17,325 43 413 -1024
2022-05-21 13:20:14 GMT 48.666824 1.640062 17,400 43 413 -1024
2022-05-21 13:20:11 GMT 48.662685 1.633999 17,425 43 413 -1088
2022-05-21 13:20:06 GMT 48.655376 1.623375 17,525 43 415 -1024
2022-05-21 13:20:04 GMT 48.653458 1.620554 17,625 44 415 -1024
2022-05-21 13:20:00 GMT 48.647919 1.612525 17,625 44 415 -1024
2022-05-21 13:19:57 GMT 48.643227 1.605666 17,675 43 416 -1024
2022-05-21 13:19:54 GMT 48.635193 1.594004 17,775 43 416 -1024
2022-05-21 13:19:51 GMT 48.635193 1.594004 17,775 43 416 -1024
2022-05-21 13:19:49 GMT 48.631538 1.588753 17,800 43 416 -1024
2022-05-21 13:19:46 GMT 48.628326 1.584055 17,850 43 416 -1024
2022-05-21 13:19:43 GMT 48.624325 1.578273 17,900 43 416 -1024
2022-05-21 13:19:39 GMT 48.618786 1.570178 17,975 43 416 -1024
2022-05-21 13:19:35 GMT 48.610703 1.558580 18,175 43 417 -960
2022-05-21 13:19:33 GMT 48.610703 1.558580 18,050 43 417 -1088
2022-05-21 13:19:30 GMT 48.606262 1.552101 18,100 43 417 -960
2022-05-21 13:19:26 GMT 48.600349 1.543724 18,200 41 417 -1024
2022-05-21 13:19:23 GMT 48.597092 1.539242 18,250 40 416 -1024
2022-05-21 13:19:20 GMT 48.591831 1.532376 18,275 39 415 -1024
2022-05-21 13:19:17 GMT 48.587547 1.527027 18,375 37 414 -1024
2022-05-21 13:19:13 GMT 48.582150 1.520595 18,375 36 413 -1024
2022-05-21 13:19:10 GMT 48.575684 1.513367 18,450 35 412 -1024
2022-05-21 13:19:08 GMT 48.572884 1.510403 18,525 33 410 -1024
2022-05-21 13:19:04 GMT 48.567535 1.504916 18,550 32 411 -1024
2022-05-21 13:19:00 GMT 48.561127 1.498789 18,600 31 409 -1024
2022-05-21 13:18:57 GMT 48.556915 1.494936 18,650 30 408 -1024
2022-05-21 13:18:54 GMT 48.551376 1.490056 18,700 28 407 -1024
2022-05-21 13:18:52 GMT 48.540710 1.481535 18,800 27 407 -1024
2022-05-21 13:18:48 GMT 48.540710 1.481535 18,825 26 409 -1024
2022-05-21 13:18:45 GMT 48.535446 1.477591 18,900 25 411 -1088
2022-05-21 13:18:43 GMT 48.526657 1.471228 18,950 25 417 -2176
2022-05-21 13:18:40 GMT 48.526657 1.471228 18,975 25 415 -1792
2022-05-21 13:18:37 GMT 48.520752 1.466886 19,100 25 416 -2176
2022-05-21 13:18:34 GMT 48.509293 1.458580 19,475 25 418 -2304
2022-05-21 13:18:30 GMT 48.509293 1.458580 19,350 25 419 -2560
2022-05-21 13:18:26 GMT 48.504044 1.454843 19,500 25 419 -3328
2022-05-21 13:18:23 GMT 48.497772 1.450266 19,875 25 419 -3328
2022-05-21 13:18:18 GMT 48.491093 1.445497 19,900 25 419 -3328
2022-05-21 13:18:15 GMT 48.484249 1.440510 20,150 25 419 -3264
2022-05-21 13:18:13 GMT 48.480061 1.437474 20,375 25 418 -3328
2022-05-21 13:18:10 GMT 48.474701 1.433575 20,425 25 418 -3328
2022-05-21 13:18:07 GMT 48.469894 1.430124 20,700 25 418 -3200
2022-05-21 13:18:04 GMT 48.464951 1.426532 20,700 25 418 -2880
2022-05-21 13:17:59 GMT 48.456924 1.420706 20,900 25 419 -2560
2022-05-21 13:17:56 GMT 48.451080 1.416532 21,025 25 420 -2560
2022-05-21 13:17:52 GMT 48.444672 1.411884 21,225 25 421 -2560
2022-05-21 13:17:49 GMT 48.434830 1.404771 21,475 25 423 -2624
2022-05-21 13:17:44 GMT 48.429886 1.401179 21,550 25 424 -2624
2022-05-21 13:17:41 GMT 48.423569 1.396672 21,700 25 426 -2624
2022-05-21 13:17:39 GMT 48.421032 1.394830 21,700 25 425 -2624
2022-05-21 13:17:34 GMT 48.412170 1.388432 22,000 25 428 -2624
2022-05-21 13:17:32 GMT 48.408600 1.385827 22,175 25 428 -2624
2022-05-21 13:17:29 GMT 48.403610 1.382235 22,375 25 428 -2624
2022-05-21 13:17:26 GMT 48.398266 1.378423 22,350 25 428 -2688
2022-05-21 13:17:22 GMT 48.390537 1.372785 22,850 25 431 -2688
2022-05-21 13:17:19 GMT 48.385162 1.368925 22,650 25 431 -2688
2022-05-21 13:17:16 GMT 48.379990 1.365192 22,775 25 431 -2688
2022-05-21 13:17:12 GMT 48.364471 1.353993 23,150 25 434 -2688
2022-05-21 13:17:07 GMT 48.364471 1.353993 23,150 25 434 -2688
2022-05-21 13:17:04 GMT 48.357952 1.349295 23,325 25 437 -2752
2022-05-21 13:16:59 GMT 48.348862 1.342726 23,500 25 436 -2624
2022-05-21 13:16:52 GMT 48.336456 1.333853 23,900 25 438 -2816
2022-05-21 13:16:47 GMT 48.325878 1.326238 24,375 25 439 -2944
2022-05-21 13:16:41 GMT 48.317032 1.319877 24,375 25 440 -2880
2022-05-21 13:16:38 GMT 48.311554 1.315894 24,575 25 441 -1984
2022-05-21 13:16:36 GMT 48.307114 1.312725 24,675 25 441 -1856
2022-05-21 13:16:32 GMT 48.297947 1.306144 24,725 25 441 -1856
2022-05-21 13:16:28 GMT 48.292419 1.302162 24,825 25 441 -1344
2022-05-21 13:16:26 GMT 48.288712 1.299556 24,875 25 442 -1024
2022-05-21 13:16:22 GMT 48.281296 1.294204 25,150 25 451 -1024
2022-05-21 13:16:18 GMT 48.275043 1.289737 24,975 25 442 -1024
2022-05-21 13:16:16 GMT 48.270622 1.286557 25,025 25 442 -1024
2022-05-21 13:16:11 GMT 48.260471 1.279257 25,150 25 442 -960
2022-05-21 13:16:08 GMT 48.255863 1.275932 25,150 25 442 -960
2022-05-21 13:16:05 GMT 48.251083 1.272513 25,200 25 442 -1024
2022-05-21 13:16:01 GMT 48.243340 1.266969 25,975 25 451 -1024
2022-05-21 13:15:58 GMT 48.237213 1.262583 25,325 25 443 -1024
2022-05-21 13:15:55 GMT 48.232635 1.259273 25,350 25 443 -1024
2022-05-21 13:15:52 GMT 48.226303 1.254754 25,525 25 444 -1024
2022-05-21 13:15:48 GMT 48.218719 1.249343 25,525 25 444 -1024
2022-05-21 13:15:46 GMT 48.214478 1.246298 25,525 25 444 -1024
2022-05-21 13:15:40 GMT 48.199997 1.235891 25,700 25 446 -1024
2022-05-21 13:15:36 GMT 48.194416 1.231914 25,700 25 446 -1024
2022-05-21 13:15:31 GMT 48.185074 1.225257 25,800 25 447 -1024
2022-05-21 13:15:28 GMT 48.180588 1.222018 25,825 25 448 -1024
2022-05-21 13:15:24 GMT 48.174957 1.218037 25,875 25 449 -1024
2022-05-21 13:15:21 GMT 48.167599 1.212761 25,950 25 449 -1024
2022-05-21 13:15:18 GMT 48.162247 1.208930 26,050 25 450 -1024
2022-05-21 13:15:15 GMT 48.156601 1.204926 26,050 25 450 -1024
2022-05-21 13:15:10 GMT 48.145676 1.197087 26,200 25 452 -1024
2022-05-21 13:15:07 GMT 48.138317 1.191876 26,175 25 452 -1024
2022-05-21 13:15:05 GMT 48.138317 1.191876 26,200 25 452 -1024
2022-05-21 13:15:00 GMT 48.127213 1.183914 26,300 25 453 -1024
2022-05-21 13:14:57 GMT 48.123051 1.180960 26,350 25 453 -1024
2022-05-21 13:14:55 GMT 48.112793 1.173683 26,375 25 453 -1024
2022-05-21 13:14:52 GMT 48.112793 1.173683 26,425 25 453 -1024
2022-05-21 13:14:48 GMT 48.105972 1.168808 26,550 25 454 -1024
2022-05-21 13:14:45 GMT 48.101578 1.165718 26,525 25 454 -1024
2022-05-21 13:14:42 GMT 48.095398 1.161324 26,600 25 454 -1024
2022-05-21 13:14:39 GMT 48.090603 1.157931 26,725 25 454 -1024
2022-05-21 13:14:35 GMT 48.071182 1.144089 26,750 25 454 -960
2022-05-21 13:14:29 GMT 48.071182 1.144089 26,825 25 454 -960
2022-05-21 13:14:26 GMT 48.064674 1.139479 26,875 25 454 -1024
2022-05-21 13:14:24 GMT 48.060902 1.136803 26,900 25 454 -1024
2022-05-21 13:14:21 GMT 48.054943 1.132578 26,950 25 455 -1024
2022-05-21 13:14:16 GMT 48.045364 1.125755 27,075 25 455 -1024
2022-05-21 13:14:14 GMT 48.041519 1.123009 27,075 25 455 -1024
2022-05-21 13:14:10 GMT 48.032925 1.116873 27,150 25 456 -1024
2022-05-21 13:14:05 GMT 48.024406 1.110887 27,225 25 456 -960
2022-05-21 13:14:02 GMT 48.016911 1.105534 27,325 25 457 -1024
2022-05-21 13:13:59 GMT 48.011417 1.101661 27,325 25 457 -1024
2022-05-21 13:13:56 GMT 48.008057 1.099251 27,350 25 458 -1024
2022-05-21 13:13:54 GMT 48.003086 1.095745 27,400 25 457 -1024
2022-05-21 13:13:49 GMT 47.993076 1.088632 27,475 25 458 -1024
2022-05-21 13:13:45 GMT 47.976608 1.077003 27,575 25 458 -1024
2022-05-21 13:13:40 GMT 47.976608 1.077003 27,650 25 458 -1024
2022-05-21 13:13:37 GMT 47.970173 1.072435 27,675 25 458 -1024
2022-05-21 13:13:33 GMT 47.964027 1.068068 27,725 25 458 -1024
2022-05-21 13:13:30 GMT 47.957836 1.063702 27,875 25 459 -1024
2022-05-21 13:13:27 GMT 47.951878 1.059476 27,950 25 459 -1024
2022-05-21 13:13:24 GMT 47.945160 1.054756 27,900 25 459 -1024
2022-05-21 13:13:20 GMT 47.938656 1.050180 28,025 25 460 -1024
2022-05-21 13:13:16 GMT 47.931335 1.045006 28,075 25 460 -1024
2022-05-21 13:13:13 GMT 47.925201 1.040680 28,050 25 460 -1024
2022-05-21 13:13:08 GMT 47.907532 1.028183 28,225 25 460 -1024
2022-05-21 13:13:04 GMT 47.907532 1.028183 28,225 25 460 -1024
2022-05-21 13:12:59 GMT 47.899460 1.022503 28,325 25 460 -1024
2022-05-21 13:12:56 GMT 47.890244 1.016024 28,375 25 460 -1024
2022-05-21 13:12:53 GMT 47.886379 1.013277 28,400 25 460 -1024
2022-05-21 13:12:49 GMT 47.876953 1.006622 28,650 25 464 -1024
2022-05-21 13:12:43 GMT 47.867340 0.999826 28,575 25 462 -1088
2022-05-21 13:12:39 GMT 47.859009 0.993988 28,650 25 466 -1024
2022-05-21 13:12:34 GMT 47.850449 0.987946 28,750 25 471 -1024
2022-05-21 13:12:31 GMT 47.842201 0.982079 29,275 25 478 -1088
2022-05-21 13:12:28 GMT 47.837814 0.979019 29,025 25 479 -1088
2022-05-21 13:12:25 GMT 47.822182 0.967994 28,925 25 481 -1024
2022-05-21 13:12:20 GMT 47.822182 0.967994 29,025 25 486 -1024
2022-05-21 13:12:16 GMT 47.805588 0.956291 29,200 25 486 -960
2022-05-21 13:12:13 GMT 47.805588 0.956291 29,100 25 486 -1024
2022-05-21 13:12:09 GMT 47.791672 0.946541 29,200 25 486 -1024
2022-05-21 13:12:05 GMT 47.791672 0.946541 29,200 25 486 -1024
2022-05-21 13:12:02 GMT 47.785641 0.942289 29,275 25 486 -1024
2022-05-21 13:11:58 GMT 47.777023 0.936241 29,400 25 486 -1024
2022-05-21 13:11:55 GMT 47.771767 0.932570 29,450 25 486 -1024
2022-05-21 13:11:52 GMT 47.765247 0.927993 29,425 25 486 -1024
2022-05-21 13:11:47 GMT 47.755188 0.920929 29,600 25 486 -1024
2022-05-21 13:11:44 GMT 47.749004 0.916584 29,575 25 486 -1024
2022-05-21 13:11:41 GMT 47.743835 0.912964 29,600 25 486 -1024
2022-05-21 13:11:37 GMT 47.732708 0.905175 29,700 25 486 -1024
2022-05-21 13:11:34 GMT 47.728409 0.902184 29,775 25 487 -1024
2022-05-21 13:11:31 GMT 47.723820 0.898977 29,775 25 487 -1024
2022-05-21 13:11:28 GMT 47.714787 0.892639 29,850 25 488 -960
2022-05-21 13:11:25 GMT 47.709641 0.889000 29,875 25 487 -1024
2022-05-21 13:11:23 GMT 47.705429 0.886047 30,000 25 487 -768
2022-05-21 13:11:20 GMT 47.699284 0.881723 29,975 25 487 -768
2022-05-21 13:11:12 GMT 47.678894 0.867497 30,000 25 487 64
2022-05-21 13:11:09 GMT 47.678894 0.867497 30,000 25 488 0
2022-05-21 13:11:04 GMT 47.668716 0.860367 30,000 25 488 0
2022-05-21 13:11:01 GMT 47.659744 0.854118 30,000 25 488 -64
2022-05-21 13:10:58 GMT 47.655624 0.851234 30,000 25 488 64
2022-05-21 13:10:55 GMT 47.645424 0.844116 30,000 25 488 0
2022-05-21 13:10:53 GMT 47.637230 0.838412 30,000 25 488 0
2022-05-21 13:10:49 GMT 47.637230 0.838412 30,000 25 488 0
2022-05-21 13:10:46 GMT 47.630402 0.833588 30,000 25 488 0
2022-05-21 13:10:43 GMT 47.625458 0.830154 30,000 25 488 0
2022-05-21 13:10:39 GMT 47.616348 0.823837 30,000 25 489 0
2022-05-21 13:10:33 GMT 47.603394 0.814774 30,000 25 489 -64
2022-05-21 13:10:29 GMT 47.596069 0.809692 30,000 25 488 -64
2022-05-21 13:10:23 GMT 47.584488 0.801590 30,000 25 488 0
2022-05-21 13:10:18 GMT 47.573822 0.794174 30,000 25 488 0
2022-05-21 13:10:13 GMT 47.563156 0.786758 30,000 25 488 64
2022-05-21 13:10:10 GMT 47.556229 0.781931 30,000 25 488 -64
2022-05-21 13:10:03 GMT 47.534164 0.766578 30,000 25 488 0
2022-05-21 13:09:59 GMT 47.534164 0.766578 30,000 25 488 0
2022-05-21 13:09:56 GMT 47.527645 0.762071 30,000 25 487 0
2022-05-21 13:09:52 GMT 47.520477 0.757071 30,000 25 487 0
2022-05-21 13:09:49 GMT 47.515404 0.753549 30,000 25 487 0
2022-05-21 13:09:46 GMT 47.500443 0.743156 30,000 25 487 0
2022-05-21 13:09:42 GMT 47.500443 0.743156 30,000 25 487 0
2022-05-21 13:09:39 GMT 47.491333 0.736839 30,000 25 487 0
2022-05-21 13:09:34 GMT 47.481537 0.730042 30,000 25 488 0
2022-05-21 13:09:28 GMT 47.470917 0.722694 30,000 25 488 0
2022-05-21 13:09:25 GMT 47.459076 0.714534 30,000 25 488 0
2022-05-21 13:09:22 GMT 47.452972 0.710266 30,000 25 488 -64
2022-05-21 13:09:19 GMT 47.452972 0.710266 30,000 25 488 -64
2022-05-21 13:09:16 GMT 47.446831 0.706012 30,000 25 488 0
2022-05-21 13:09:12 GMT 47.430725 0.694885 30,000 25 487 0
2022-05-21 13:09:08 GMT 47.430725 0.694885 30,000 25 487 0
2022-05-21 13:09:04 GMT 47.423183 0.689674 30,000 25 487 0
2022-05-21 13:09:01 GMT 47.415436 0.684311 30,000 25 487 0
2022-05-21 13:08:58 GMT 47.410103 0.680589 30,000 25 487 0
2022-05-21 13:08:55 GMT 47.404037 0.676414 30,000 25 486 64
2022-05-21 13:08:51 GMT 47.396713 0.671333 30,000 25 487 0
2022-05-21 13:08:48 GMT 47.389759 0.666574 30,000 25 486 64
2022-05-21 13:08:43 GMT 47.379192 0.659250 30,000 25 485 -64
2022-05-21 13:08:40 GMT 47.364075 0.648811 30,000 25 485 0
2022-05-21 13:08:36 GMT 47.364075 0.648811 30,000 25 485 64
2022-05-21 13:08:33 GMT 47.357174 0.644038 30,000 25 485 64
2022-05-21 13:08:29 GMT 47.351074 0.639816 30,000 25 485 -64
2022-05-21 13:08:25 GMT 47.343933 0.634941 30,000 25 485 64
2022-05-21 13:08:22 GMT 47.337296 0.630341 30,000 25 485 64
2022-05-21 13:08:17 GMT 47.326263 0.622770 30,000 25 485 64
2022-05-21 13:08:11 GMT 47.313629 0.613998 30,000 25 485 64
2022-05-21 13:08:06 GMT 47.304241 0.607558 30,000 25 485 64
2022-05-21 13:08:02 GMT 47.296509 0.602257 30,000 25 485 0
2022-05-21 13:07:57 GMT 47.283852 0.593543 30,000 25 485 -64
2022-05-21 13:07:52 GMT 47.275890 0.588050 30,000 25 485 -64
2022-05-21 13:07:49 GMT 47.268814 0.583237 30,000 25 485 64
2022-05-21 13:07:46 GMT 47.263138 0.579323 30,000 25 485 64
2022-05-21 13:07:41 GMT 47.254395 0.573280 30,000 25 485 -64
2022-05-21 13:07:38 GMT 47.247265 0.568402 30,000 25 485 64
2022-05-21 13:07:35 GMT 47.242374 0.565021 30,000 25 485 64
2022-05-21 13:07:32 GMT 47.235161 0.560091 30,000 25 485 0
2022-05-21 13:07:29 GMT 47.226917 0.554457 30,000 25 485 0
2022-05-21 13:07:26 GMT 47.221619 0.550827 30,000 25 485 64
2022-05-21 13:07:21 GMT 47.212440 0.544457 30,000 25 485 64
2022-05-21 13:07:18 GMT 47.206577 0.540443 30,000 25 485 -64
2022-05-21 13:07:14 GMT 47.199455 0.535583 30,000 24 485 0
2022-05-21 13:07:11 GMT 47.193588 0.531569 30,000 25 485 0
2022-05-21 13:07:06 GMT 47.182617 0.524048 30,000 25 485 -64
2022-05-21 13:07:01 GMT 47.172043 0.516769 30,000 25 485 64
2022-05-21 13:06:57 GMT 47.162201 0.510040 30,000 25 485 0
2022-05-21 13:06:54 GMT 47.157742 0.506991 30,000 25 485 -64
2022-05-21 13:06:51 GMT 47.151672 0.502831 30,000 25 485 0
2022-05-21 13:06:46 GMT 47.136608 0.492483 30,000 24 485 0
2022-05-21 13:06:43 GMT 47.129299 0.487483 30,000 25 484 -64
2022-05-21 13:06:40 GMT 47.129299 0.487483 30,000 24 483 64
2022-05-21 13:06:36 GMT 47.115520 0.478046 30,000 23 483 0
2022-05-21 13:06:33 GMT 47.115520 0.478046 30,000 23 483 0
2022-05-21 13:06:29 GMT 47.108597 0.473373 30,000 24 483 64
2022-05-21 13:06:25 GMT 47.099228 0.467201 30,000 23 483 -64
2022-05-21 13:06:20 GMT 47.088612 0.460369 30,000 23 483 -64
2022-05-21 13:06:16 GMT 47.080811 0.455383 30,000 23 482 64
2022-05-21 13:06:13 GMT 47.074356 0.451332 30,000 22 483 0
2022-05-21 13:06:09 GMT 47.064873 0.445510 30,000 22 482 0
2022-05-21 13:06:06 GMT 47.059795 0.442411 30,000 20 481 64
2022-05-21 13:06:03 GMT 47.053185 0.438467 30,000 22 482 0
2022-05-21 13:06:00 GMT 47.047367 0.435016 30,000 21 481 64
2022-05-21 13:05:56 GMT 47.039082 0.430227 30,000 20 481 0
2022-05-21 13:05:49 GMT 47.026199 0.423042 30,000 20 481 0
2022-05-21 13:05:46 GMT 47.018829 0.419060 30,000 20 481 0
2022-05-21 13:05:43 GMT 47.009720 0.414116 30,000 20 481 64
2022-05-21 13:05:40 GMT 47.005703 0.411987 30,000 20 481 0
2022-05-21 13:05:36 GMT 46.996532 0.406987 30,000 20 481 0
2022-05-21 13:05:33 GMT 46.978775 0.397499 30,000 20 481 0
2022-05-21 13:05:28 GMT 46.978775 0.397499 30,000 20 481 0
2022-05-21 13:05:24 GMT 46.972733 0.394203 30,000 20 481 0
2022-05-21 13:05:20 GMT 46.961838 0.388367 30,000 20 482 0
2022-05-21 13:05:16 GMT 46.957382 0.385930 30,000 20 482 0
2022-05-21 13:05:13 GMT 46.949249 0.381569 30,000 20 482 0
2022-05-21 13:05:09 GMT 46.941010 0.377174 30,000 20 483 0
2022-05-21 13:05:05 GMT 46.932896 0.372831 30,000 20 484 0
2022-05-21 13:05:02 GMT 46.927029 0.369662 30,000 20 484 0
2022-05-21 13:04:59 GMT 46.920731 0.366257 30,000 20 484 0
2022-05-21 13:04:53 GMT 46.906448 0.358566 30,000 20 484 0
2022-05-21 13:04:49 GMT 46.892582 0.351140 30,000 20 485 0
2022-05-21 13:04:46 GMT 46.892582 0.351140 30,000 20 484 64
2022-05-21 13:04:43 GMT 46.885132 0.347196 30,000 20 485 -64
2022-05-21 13:04:39 GMT 46.877838 0.343254 30,000 20 485 -64
2022-05-21 13:04:36 GMT 46.872330 0.340294 30,000 20 485 0
2022-05-21 13:04:33 GMT 46.865204 0.336490 30,000 20 485 64
2022-05-21 13:04:28 GMT 46.854782 0.330894 30,000 20 485 64
2022-05-21 13:04:25 GMT 46.849659 0.328148 30,000 20 485 -64
2022-05-21 13:04:22 GMT 46.842815 0.324509 30,000 20 485 64
2022-05-21 13:04:17 GMT 46.831833 0.318604 30,000 20 485 0
2022-05-21 13:04:14 GMT 46.825081 0.315033 30,000 20 485 -64
2022-05-21 13:04:09 GMT 46.814980 0.309608 30,000 20 485 64
2022-05-21 13:04:05 GMT 46.804413 0.304000 30,000 20 485 0
2022-05-21 13:04:01 GMT 46.798965 0.301094 30,000 20 484 -64
2022-05-21 13:03:58 GMT 46.786743 0.294554 30,000 20 484 -128
2022-05-21 13:03:55 GMT 46.786743 0.294554 30,000 20 484 -256
2022-05-21 13:03:52 GMT 46.778900 0.290382 30,025 20 481 -1088
2022-05-21 13:03:48 GMT 46.770382 0.285851 30,050 20 482 -832
2022-05-21 13:03:45 GMT 46.763443 0.282161 30,125 20 482 -1024
2022-05-21 13:03:42 GMT 46.758270 0.279347 30,150 20 481 -1088
2022-05-21 13:03:37 GMT 46.741146 0.270264 30,300 20 480 -960
2022-05-21 13:03:34 GMT 46.741146 0.270264 30,300 20 480 -960
2022-05-21 13:03:31 GMT 46.736073 0.267586 30,325 20 479 -1024
2022-05-21 13:03:28 GMT 46.729980 0.264342 30,425 20 479 -1024
2022-05-21 13:03:24 GMT 46.720688 0.259385 30,450 20 478 -1024
2022-05-21 13:03:20 GMT 46.712585 0.255097 30,575 20 479 -1024
2022-05-21 13:03:17 GMT 46.706139 0.251656 30,625 20 479 -1088
2022-05-21 13:03:14 GMT 46.699905 0.248331 30,625 20 480 -1024
2022-05-21 13:03:11 GMT 46.694500 0.245407 30,650 20 480 -1024
2022-05-21 13:03:07 GMT 46.683197 0.239422 30,750 20 482 -1088
2022-05-21 13:03:04 GMT 46.680256 0.237854 30,825 20 483 -1024
2022-05-21 13:03:01 GMT 46.672714 0.233871 30,950 20 484 -960
2022-05-21 13:02:57 GMT 46.663010 0.228703 31,000 20 486 -512
2022-05-21 13:02:53 GMT 46.656281 0.225086 30,975 20 486 -896
2022-05-21 13:02:49 GMT 46.647392 0.220413 31,000 20 486 -128
2022-05-21 13:02:46 GMT 46.642315 0.217667 31,000 20 485 0
2022-05-21 13:02:43 GMT 46.636356 0.214508 31,000 20 485 0
2022-05-21 13:02:40 GMT 46.621719 0.206731 31,000 20 485 64
2022-05-21 13:02:37 GMT 46.621719 0.206731 31,000 20 485 64
2022-05-21 13:02:33 GMT 46.614212 0.202778 31,000 20 484 64
2022-05-21 13:02:29 GMT 46.605652 0.198223 31,000 20 483 -64
2022-05-21 13:02:26 GMT 46.597229 0.193802 31,000 20 483 -64
2022-05-21 13:02:23 GMT 46.593063 0.191524 31,000 20 483 -64
2022-05-21 13:02:19 GMT 46.584000 0.186768 31,000 20 482 64
2022-05-21 13:02:16 GMT 46.578541 0.183884 31,000 20 481 64
2022-05-21 13:02:13 GMT 46.572144 0.180471 31,000 20 481 64
2022-05-21 13:02:07 GMT 46.560013 0.174065 31,000 20 480 64
2022-05-21 13:02:03 GMT 46.551025 0.169327 31,000 20 478 -128
2022-05-21 13:01:59 GMT 46.542984 0.165063 31,000 20 478 0
2022-05-21 13:01:56 GMT 46.537170 0.161981 31,000 20 477 64
2022-05-21 13:01:52 GMT 46.527657 0.156967 31,000 19 476 64
2022-05-21 13:01:47 GMT 46.517788 0.151749 31,000 20 475 0
2022-05-21 13:01:43 GMT 46.509598 0.147423 31,000 19 474 64
2022-05-21 13:01:38 GMT 46.499588 0.142136 31,000 20 473 0
2022-05-21 13:01:34 GMT 46.480686 0.132179 31,000 19 472 64
2022-05-21 13:01:30 GMT 46.480686 0.132179 31,000 19 471 64
2022-05-21 13:01:26 GMT 46.466537 0.124668 31,000 19 468 0
2022-05-21 13:01:22 GMT 46.466537 0.124668 31,000 19 469 -64
2022-05-21 13:01:16 GMT 46.454571 0.118446 31,000 20 467 -64
2022-05-21 13:01:13 GMT 46.446991 0.114419 31,000 20 467 -64
2022-05-21 13:01:09 GMT 46.440399 0.110935 31,000 20 464 0
2022-05-21 13:01:06 GMT 46.434860 0.108055 31,000 19 465 0
2022-05-21 13:01:02 GMT 46.425842 0.103298 31,000 20 464 0
2022-05-21 13:00:56 GMT 46.406296 0.093040 31,000 20 461 -64
2022-05-21 13:00:52 GMT 46.406296 0.093040 31,000 20 460 0
2022-05-21 13:00:48 GMT 46.397781 0.088561 31,000 19 460 0
2022-05-21 13:00:45 GMT 46.390144 0.084526 31,000 19 460 0
2022-05-21 13:00:42 GMT 46.385925 0.082330 31,000 19 460 -64
2022-05-21 13:00:35 GMT 46.371754 0.074844 31,000 19 460 0
2022-05-21 13:00:32 GMT 46.365784 0.071746 31,000 19 460 0
2022-05-21 13:00:25 GMT 46.352875 0.064980 31,000 19 460 0
2022-05-21 13:00:22 GMT 46.346012 0.061386 31,000 19 460 64
2022-05-21 13:00:15 GMT 46.331406 0.053726 31,000 19 460 -64
2022-05-21 13:00:12 GMT 46.325157 0.050468 31,000 19 460 0
2022-05-21 13:00:08 GMT 46.317627 0.046491 31,000 19 460 64
2022-05-21 13:00:05 GMT 46.312729 0.043945 31,000 19 460 0
2022-05-21 13:00:02 GMT 46.304348 0.039551 31,000 19 460 0
2022-05-21 12:59:55 GMT 46.285492 0.029676 31,000 19 460 0
2022-05-21 12:59:52 GMT 46.285492 0.029676 31,000 19 460 -64
2022-05-21 12:59:49 GMT 46.279488 0.026505 31,000 19 460 0
2022-05-21 12:59:45 GMT 46.272675 0.022978 31,000 19 460 -64
2022-05-21 12:59:42 GMT 46.264664 0.018757 31,000 19 460 -64
2022-05-21 12:59:38 GMT 46.257477 0.015006 31,000 19 460 64
2022-05-21 12:59:35 GMT 46.252254 0.012291 31,000 19 460 64
2022-05-21 12:59:29 GMT 46.240383 0.006042 31,000 19 460 -64
2022-05-21 12:59:24 GMT 46.229462 0.000335 31,000 19 460 -64
2022-05-21 12:59:21 GMT 46.223625 -0.002678 31,000 19 460 0
2022-05-21 12:59:18 GMT 46.218693 -0.005219 31,000 19 461 0
2022-05-21 12:59:15 GMT 46.211571 -0.008995 31,000 19 461 0
2022-05-21 12:59:11 GMT 46.202225 -0.013867 31,000 19 461 0
2022-05-21 12:59:08 GMT 46.197372 -0.016346 31,000 19 461 0
2022-05-21 12:59:05 GMT 46.191364 -0.019501 31,000 19 461 0
2022-05-21 12:58:59 GMT 46.179401 -0.025749 31,000 19 461 -64
2022-05-21 12:58:55 GMT 46.170509 -0.030350 31,000 19 461 -64
2022-05-21 12:58:48 GMT 46.156963 -0.037422 31,000 19 462 64
2022-05-21 12:58:44 GMT 46.150444 -0.040787 31,000 19 462 -64
2022-05-21 12:58:39 GMT 46.140518 -0.046022 31,000 19 462 0
2022-05-21 12:58:34 GMT 46.130035 -0.051448 31,000 19 462 64
2022-05-21 12:58:29 GMT 46.112228 -0.060693 31,000 19 462 -64
2022-05-21 12:58:26 GMT 46.112228 -0.060693 31,000 19 462 0
2022-05-21 12:58:22 GMT 46.106174 -0.063858 31,000 19 462 64
2022-05-21 12:58:18 GMT 46.097328 -0.068459 31,000 19 462 0
2022-05-21 12:58:14 GMT 46.088486 -0.073059 31,000 19 463 0
2022-05-21 12:58:09 GMT 46.078754 -0.078072 31,000 19 464 -64
2022-05-21 12:58:06 GMT 46.073120 -0.081024 31,000 19 464 -64
2022-05-21 12:58:03 GMT 46.066650 -0.084389 31,000 19 464 -64
2022-05-21 12:57:59 GMT 46.058990 -0.088360 31,000 19 464 64
2022-05-21 12:57:56 GMT 46.051712 -0.092111 31,000 19 464 64
2022-05-21 12:57:53 GMT 46.047684 -0.094188 31,000 19 464 0
2022-05-21 12:57:50 GMT 46.040405 -0.097939 31,000 19 464 0
2022-05-21 12:57:47 GMT 46.035137 -0.100662 31,000 19 464 0
2022-05-21 12:57:43 GMT 46.027496 -0.104638 31,000 19 464 -64
2022-05-21 12:57:38 GMT 46.017353 -0.109932 31,000 19 464 64
2022-05-21 12:57:33 GMT 46.006439 -0.115557 31,000 19 464 64
2022-05-21 12:57:28 GMT 45.996735 -0.120582 31,000 19 464 0
2022-05-21 12:57:24 GMT 45.988258 -0.124969 31,000 19 464 64
2022-05-21 12:57:21 GMT 45.982224 -0.128085 31,000 19 464 64
2022-05-21 12:57:17 GMT 45.974121 -0.132305 31,000 19 465 -64
2022-05-21 12:57:12 GMT 45.955902 -0.141724 31,000 19 465 0
2022-05-21 12:57:08 GMT 45.955902 -0.141724 31,000 19 465 0
2022-05-21 12:57:05 GMT 45.949574 -0.144951 31,000 19 466 -64
2022-05-21 12:57:02 GMT 45.944962 -0.147378 31,000 19 466 -64
2022-05-21 12:56:58 GMT 45.933838 -0.153072 31,000 19 466 0
2022-05-21 12:56:53 GMT 45.923595 -0.158409 31,000 19 466 0
2022-05-21 12:56:50 GMT 45.917778 -0.161362 31,000 19 466 0
2022-05-21 12:56:45 GMT 45.908234 -0.166306 31,000 19 467 0
2022-05-21 12:56:42 GMT 45.903950 -0.168503 31,000 19 467 -64
2022-05-21 12:56:37 GMT 45.893383 -0.173996 31,000 19 467 0
2022-05-21 12:56:34 GMT 45.887283 -0.177121 31,000 19 467 0
2022-05-21 12:56:31 GMT 45.882164 -0.179764 31,000 19 467 0
2022-05-21 12:56:24 GMT 45.866959 -0.187638 31,000 19 467 0
2022-05-21 12:56:21 GMT 45.861683 -0.190338 31,000 19 467 0
2022-05-21 12:56:14 GMT 45.846771 -0.198022 31,000 19 467 64
2022-05-21 12:56:07 GMT 45.832355 -0.205444 31,000 19 468 -64
2022-05-21 12:56:03 GMT 45.824570 -0.209410 31,000 19 468 -64
2022-05-21 12:55:54 GMT 45.805115 -0.219392 31,000 19 468 0
2022-05-21 12:55:49 GMT 45.795181 -0.224483 31,000 19 468 0
2022-05-21 12:55:46 GMT 45.787949 -0.228234 31,000 19 468 0
2022-05-21 12:55:43 GMT 45.783920 -0.230244 31,000 19 468 0
2022-05-21 12:55:39 GMT 45.773209 -0.235804 31,000 19 468 64
2022-05-21 12:55:33 GMT 45.763878 -0.240532 31,000 19 468 64
2022-05-21 12:55:28 GMT 45.752422 -0.246437 31,000 19 468 -64
2022-05-21 12:55:23 GMT 45.741951 -0.251793 31,000 19 468 0
2022-05-21 12:55:17 GMT 45.730404 -0.257698 31,000 19 468 -64
2022-05-21 12:55:14 GMT 45.723495 -0.261260 31,000 19 468 64
2022-05-21 12:55:11 GMT 45.718349 -0.263878 31,000 19 468 64
2022-05-21 12:55:07 GMT 45.710110 -0.268135 31,000 19 468 0
2022-05-21 12:55:03 GMT 45.701866 -0.272324 31,000 19 468 0
2022-05-21 12:55:00 GMT 45.696716 -0.274926 31,000 19 467 0
2022-05-21 12:54:55 GMT 45.684540 -0.281156 31,000 19 467 -64
2022-05-21 12:54:52 GMT 45.680733 -0.283173 31,000 19 467 -64
2022-05-21 12:54:47 GMT 45.670532 -0.288324 31,000 19 467 64
2022-05-21 12:54:43 GMT 45.660782 -0.293281 31,000 19 466 0
2022-05-21 12:54:40 GMT 45.655930 -0.295827 31,000 19 466 -64
2022-05-21 12:54:37 GMT 45.649822 -0.298897 31,000 19 466 -64
2022-05-21 12:54:33 GMT 45.641724 -0.303017 31,000 19 466 64
2022-05-21 12:54:30 GMT 45.634415 -0.306793 31,000 19 465 64
2022-05-21 12:54:27 GMT 45.629288 -0.309426 31,000 19 465 -64
2022-05-21 12:54:24 GMT 45.616333 -0.315991 31,000 19 464 64
2022-05-21 12:54:18 GMT 45.609322 -0.319565 31,000 19 464 64
2022-05-21 12:54:13 GMT 45.599213 -0.324700 31,000 19 463 64
2022-05-21 12:54:10 GMT 45.594543 -0.327111 31,000 19 463 64
2022-05-21 12:54:06 GMT 45.587128 -0.330863 31,000 19 463 0
2022-05-21 12:54:02 GMT 45.578785 -0.335152 31,000 19 463 0
2022-05-21 12:53:58 GMT 45.569099 -0.340027 31,000 19 463 0
2022-05-21 12:53:53 GMT 45.559372 -0.344971 31,000 19 464 0
2022-05-21 12:53:50 GMT 45.553646 -0.347923 31,000 19 464 0
2022-05-21 12:53:47 GMT 45.547577 -0.351027 31,000 19 464 0
2022-05-21 12:53:42 GMT 45.537586 -0.356051 31,000 19 464 -64
2022-05-21 12:53:38 GMT 45.520889 -0.364576 31,000 19 464 64
2022-05-21 12:53:35 GMT 45.520889 -0.364576 31,000 19 464 0
2022-05-21 12:53:30 GMT 45.513191 -0.368511 31,000 19 464 0
2022-05-21 12:53:27 GMT 45.507111 -0.371573 31,000 19 464 0
2022-05-21 12:53:22 GMT 45.497040 -0.376684 31,000 19 464 0
2022-05-21 12:53:19 GMT 45.490952 -0.379748 31,000 19 464 -64
2022-05-21 12:53:14 GMT 45.480469 -0.385110 31,000 19 464 -64
2022-05-21 12:53:10 GMT 45.472366 -0.389165 31,000 19 464 64
2022-05-21 12:53:05 GMT 45.464310 -0.393284 31,000 19 464 -128
2022-05-21 12:53:02 GMT 45.455933 -0.397518 31,025 19 464 -704
2022-05-21 12:52:59 GMT 45.451790 -0.399661 31,075 19 464 -1024
2022-05-21 12:52:54 GMT 45.440048 -0.405579 31,200 19 463 -1280
2022-05-21 12:52:49 GMT 45.430794 -0.410246 31,275 19 463 -1216
2022-05-21 12:52:44 GMT 45.419907 -0.415780 31,400 19 464 -1280
2022-05-21 12:52:41 GMT 45.414322 -0.418592 31,450 19 464 -1280
2022-05-21 12:52:38 GMT 45.408691 -0.421470 31,500 19 464 -1280
2022-05-21 12:52:33 GMT 45.398026 -0.426832 31,875 19 465 -64
2022-05-21 12:52:29 GMT 45.389923 -0.430952 31,700 19 464 -1216
2022-05-21 12:52:26 GMT 45.383965 -0.433960 31,750 19 465 -1216
2022-05-21 12:52:23 GMT 45.377747 -0.437099 31,825 19 465 -1216
2022-05-21 12:52:19 GMT 45.369644 -0.441219 31,900 19 465 -1152
2022-05-21 12:52:16 GMT 45.364365 -0.443874 31,950 19 465 -1088
2022-05-21 12:52:11 GMT 45.352169 -0.450038 32,000 19 464 -128
2022-05-21 12:52:06 GMT 45.343277 -0.454526 32,000 19 465 -64
2022-05-21 12:52:02 GMT 45.335968 -0.458210 32,000 19 465 -64
2022-05-21 12:51:59 GMT 45.327030 -0.462699 32,000 19 465 -64
2022-05-21 12:51:56 GMT 45.323120 -0.464708 32,000 19 465 -64
2022-05-21 12:51:48 GMT 45.307983 -0.472281 32,000 19 464 64
2022-05-21 12:51:44 GMT 45.297409 -0.477644 32,000 19 464 -64
2022-05-21 12:51:38 GMT 45.286880 -0.482941 32,000 19 464 -64
2022-05-21 12:51:34 GMT 45.278568 -0.487150 32,000 19 464 64
2022-05-21 12:51:28 GMT 45.266602 -0.493142 32,000 19 465 64
2022-05-21 12:51:23 GMT 45.256165 -0.498374 32,000 19 466 -64
2022-05-21 12:51:19 GMT 45.248310 -0.502357 32,000 19 469 64
2022-05-21 12:51:16 GMT 45.241142 -0.505974 32,000 19 469 768
2022-05-21 12:51:08 GMT 45.225407 -0.513879 31,900 19 469 896
2022-05-21 12:51:05 GMT 45.220470 -0.516357 31,850 19 469 576
2022-05-21 12:50:58 GMT 45.205109 -0.524061 31,825 19 469 -256
2022-05-21 12:50:53 GMT 45.194733 -0.529306 31,850 19 467 -128
2022-05-21 12:50:48 GMT 45.184582 -0.534378 31,750 19 465 1344
2022-05-21 12:50:45 GMT 45.178482 -0.537415 31,700 19 465 1408
2022-05-21 12:50:42 GMT 45.163586 -0.544895 31,600 19 466 1408
2022-05-21 12:50:38 GMT 45.163586 -0.544895 31,525 19 466 1408
2022-05-21 12:50:34 GMT 45.157764 -0.547843 31,450 19 466 1408
2022-05-21 12:50:30 GMT 45.148361 -0.552521 31,375 19 459 1152
2022-05-21 12:50:26 GMT 45.141472 -0.556015 30,750 19 461 1280
2022-05-21 12:50:22 GMT 45.132534 -0.560504 31,225 19 466 1024
2022-05-21 12:50:17 GMT 45.121967 -0.565796 31,125 19 465 960
2022-05-21 12:50:14 GMT 45.115997 -0.568739 31,100 19 465 1024
2022-05-21 12:50:11 GMT 45.109772 -0.571892 31,050 19 464 1024
2022-05-21 12:50:05 GMT 45.096405 -0.578548 30,925 19 463 1088
2022-05-21 12:50:02 GMT 45.091148 -0.581137 30,875 19 463 1088
2022-05-21 12:49:57 GMT 45.081467 -0.586027 30,750 19 461 1280
2022-05-21 12:49:54 GMT 45.076447 -0.588553 30,750 19 462 1152
2022-05-21 12:49:51 GMT 45.069809 -0.591823 30,675 19 461 1152
2022-05-21 12:49:47 GMT 45.060928 -0.596270 30,600 19 461 1280
2022-05-21 12:49:42 GMT 45.051270 -0.601109 30,475 19 460 1344
2022-05-21 12:49:39 GMT 45.044861 -0.604313 30,425 19 460 1344
2022-05-21 12:49:36 GMT 45.040009 -0.606733 30,375 19 460 1280
2022-05-21 12:49:32 GMT 45.030956 -0.611215 30,275 19 460 1216
2022-05-21 12:49:26 GMT 45.011169 -0.621120 29,850 19 456 1152
2022-05-21 12:49:22 GMT 45.011169 -0.621120 29,350 19 451 1152
2022-05-21 12:49:19 GMT 45.004028 -0.624651 30,025 19 458 1152
2022-05-21 12:49:16 GMT 45.000000 -0.626678 29,850 19 456 1152
2022-05-21 12:49:11 GMT 44.988922 -0.632172 29,875 19 457 1152
2022-05-21 12:49:06 GMT 44.979610 -0.636805 29,800 19 456 1152
2022-05-21 12:49:02 GMT 44.969276 -0.641963 29,675 19 455 1152
2022-05-21 12:48:58 GMT 44.963039 -0.645112 29,625 19 453 1152
2022-05-21 12:48:54 GMT 44.955368 -0.648847 29,550 19 453 1152
2022-05-21 12:48:51 GMT 44.943604 -0.654733 29,350 19 451 1152
2022-05-21 12:48:48 GMT 44.943604 -0.654733 29,425 19 452 1152
2022-05-21 12:48:45 GMT 44.937241 -0.657937 29,375 19 451 1152
2022-05-21 12:48:42 GMT 44.931381 -0.660854 29,300 19 450 1088
2022-05-21 12:48:38 GMT 44.923561 -0.664740 29,250 19 450 1088
2022-05-21 12:48:34 GMT 44.915131 -0.668924 29,150 19 449 1216
2022-05-21 12:48:31 GMT 44.910061 -0.671439 29,125 19 448 1216
2022-05-21 12:48:28 GMT 44.904522 -0.674185 29,050 19 448 1344
2022-05-21 12:48:25 GMT 44.898651 -0.677098 29,000 19 448 1344
2022-05-21 12:48:21 GMT 44.890465 -0.681152 28,625 19 445 1216
2022-05-21 12:48:18 GMT 44.884689 -0.684030 28,800 19 447 1536
2022-05-21 12:48:15 GMT 44.878731 -0.686980 28,725 19 447 1472
2022-05-21 12:48:11 GMT 44.871323 -0.690635 28,625 19 445 1216
2022-05-21 12:48:08 GMT 44.865097 -0.693708 28,575 19 446 1280
2022-05-21 12:48:05 GMT 44.859272 -0.696627 28,525 19 445 1216
2022-05-21 12:48:02 GMT 44.851498 -0.700445 28,450 19 444 1344
2022-05-21 12:47:58 GMT 44.844910 -0.703714 28,375 19 444 1344
2022-05-21 12:47:55 GMT 44.839909 -0.706207 28,300 19 443 1408
2022-05-21 12:47:51 GMT 44.831482 -0.710360 28,200 19 443 1472
2022-05-21 12:47:45 GMT 44.820190 -0.715942 28,050 19 442 1600
2022-05-21 12:47:41 GMT 44.812454 -0.719801 27,975 19 442 1600
2022-05-21 12:47:35 GMT 44.801697 -0.725098 27,800 19 441 1536
2022-05-21 12:47:32 GMT 44.796707 -0.727576 27,750 19 440 1472
2022-05-21 12:47:25 GMT 44.781483 -0.735079 27,550 19 439 1408
2022-05-21 12:47:20 GMT 44.772266 -0.739634 27,425 19 438 1472
2022-05-21 12:47:17 GMT 44.766819 -0.742314 27,350 19 438 1472
2022-05-21 12:47:14 GMT 44.761093 -0.745174 27,300 19 437 1472
2022-05-21 12:47:11 GMT 44.753494 -0.748901 27,200 19 436 1472
2022-05-21 12:47:06 GMT 44.746243 -0.752496 27,100 19 436 1600
2022-05-21 12:47:03 GMT 44.739307 -0.755913 26,975 19 435 1664
2022-05-21 12:47:00 GMT 44.734360 -0.758318 26,800 19 435 1728
2022-05-21 12:46:56 GMT 44.726807 -0.762046 26,800 19 435 1728
2022-05-21 12:46:52 GMT 44.720268 -0.765225 26,750 19 434 1792
2022-05-21 12:46:49 GMT 44.713806 -0.768454 26,600 19 434 1856
2022-05-21 12:46:43 GMT 44.702812 -0.773866 26,400 19 434 1792
2022-05-21 12:46:40 GMT 44.696365 -0.777021 26,325 19 433 1664
2022-05-21 12:46:32 GMT 44.681213 -0.784411 26,125 19 432 1280
2022-05-21 12:46:29 GMT 44.675575 -0.787197 26,075 19 432 1216
2022-05-21 12:46:24 GMT 44.665756 -0.791953 25,975 19 430 1280
2022-05-21 12:46:20 GMT 44.658447 -0.795504 25,875 19 430 1408
2022-05-21 12:46:16 GMT 44.651093 -0.799059 25,800 19 430 1408
2022-05-21 12:46:13 GMT 44.639053 -0.804879 25,700 19 429 1408
2022-05-21 12:46:10 GMT 44.639053 -0.804879 25,650 19 429 1408
2022-05-21 12:46:06 GMT 44.632324 -0.808149 25,550 19 429 1408
2022-05-21 12:46:03 GMT 44.620785 -0.813725 25,450 19 429 1408
2022-05-21 12:46:00 GMT 44.620785 -0.813725 25,400 18 429 1344
2022-05-21 12:45:53 GMT 44.608292 -0.819724 25,100 20 426 1280
2022-05-21 12:45:50 GMT 44.602478 -0.822536 25,200 20 427 1344
2022-05-21 12:45:46 GMT 44.594833 -0.826329 25,125 20 427 1216
2022-05-21 12:45:42 GMT 44.587826 -0.830004 25,050 20 426 1344
2022-05-21 12:45:39 GMT 44.582291 -0.832999 24,975 21 427 1408
2022-05-21 12:45:35 GMT 44.574558 -0.837239 24,875 21 427 1408
2022-05-21 12:45:32 GMT 44.568329 -0.840650 24,800 21 426 1408
2022-05-21 12:45:28 GMT 44.563385 -0.843331 24,750 21 425 1344
2022-05-21 12:45:24 GMT 44.549606 -0.850838 24,600 21 424 1216
2022-05-21 12:45:21 GMT 44.549606 -0.850838 24,575 21 424 1216
2022-05-21 12:45:18 GMT 44.543880 -0.853919 24,525 21 423 1152
2022-05-21 12:45:11 GMT 44.531311 -0.860752 24,400 21 420 1216
2022-05-21 12:45:07 GMT 44.524429 -0.864519 24,325 21 421 1152
2022-05-21 12:45:01 GMT 44.512985 -0.870667 24,200 21 419 1280
2022-05-21 12:44:55 GMT 44.494396 -0.880782 24,000 21 418 1408
2022-05-21 12:44:51 GMT 44.494396 -0.880782 23,950 21 418 1472
2022-05-21 12:44:46 GMT 44.485737 -0.885471 23,750 21 417 1536
2022-05-21 12:44:41 GMT 44.476521 -0.890495 23,700 21 417 1536
2022-05-21 12:44:35 GMT 44.466465 -0.895989 23,575 21 416 1472
2022-05-21 12:44:31 GMT 44.458458 -0.900343 23,450 21 415 1472
2022-05-21 12:44:23 GMT 44.440155 -0.910230 23,200 21 414 1472
2022-05-21 12:44:20 GMT 44.440155 -0.910230 23,200 21 414 1472
2022-05-21 12:44:13 GMT 44.427082 -0.917291 23,025 21 413 1408
2022-05-21 12:44:10 GMT 44.421021 -0.920628 22,950 21 411 1344
2022-05-21 12:44:03 GMT 44.406693 -0.928345 22,775 21 410 1280
2022-05-21 12:44:00 GMT 44.403992 -0.929849 22,750 21 409 1280
2022-05-21 12:43:53 GMT 44.391609 -0.936517 22,600 21 407 1408
2022-05-21 12:43:50 GMT 44.385883 -0.939599 22,550 21 406 1408
2022-05-21 12:43:44 GMT 44.375748 -0.945086 22,375 21 404 1536
2022-05-21 12:43:40 GMT 44.368744 -0.948879 22,275 21 404 1536
2022-05-21 12:43:34 GMT 44.357952 -0.954739 22,125 21 403 1728
2022-05-21 12:43:31 GMT 44.352722 -0.957576 21,975 21 403 1792
2022-05-21 12:43:23 GMT 44.339844 -0.964452 21,750 21 402 1920
2022-05-21 12:43:20 GMT 44.333954 -0.967647 21,700 21 402 1984
2022-05-21 12:43:10 GMT 44.316334 -0.977180 21,350 21 403 1984
2022-05-21 12:43:00 GMT 44.299896 -0.986023 21,000 21 402 1728
2022-05-21 12:42:51 GMT 44.283234 -0.995047 20,800 21 401 1664
2022-05-21 12:42:48 GMT 44.278160 -0.997746 20,725 21 400 1664
2022-05-21 12:42:39 GMT 44.263916 -1.005445 20,300 21 398 1664
2022-05-21 12:42:30 GMT 44.247482 -1.014274 20,225 21 396 1536
2022-05-21 12:42:27 GMT 44.243317 -1.016497 20,175 21 395 1472
2022-05-21 12:42:20 GMT 44.224915 -1.026437 19,900 21 392 1536
2022-05-21 12:42:17 GMT 44.224915 -1.026437 19,900 21 392 1536
2022-05-21 12:42:09 GMT 44.211365 -1.033696 19,675 21 389 1856
2022-05-21 12:42:06 GMT 44.206982 -1.036064 19,600 21 389 1792
2022-05-21 12:42:00 GMT 44.195938 -1.042001 19,400 21 388 1856
2022-05-21 12:41:50 GMT 44.179657 -1.050764 19,125 21 385 1664
2022-05-21 12:41:45 GMT 44.172207 -1.054753 19,000 21 382 1664
2022-05-21 12:41:39 GMT 44.161594 -1.060442 18,825 21 382 1664
2022-05-21 12:41:35 GMT 44.154427 -1.064301 18,700 21 380 1536
2022-05-21 12:41:29 GMT 44.145767 -1.068944 18,575 21 380 1536
2022-05-21 12:41:20 GMT 44.129700 -1.077491 18,275 21 377 1664
2022-05-21 12:41:09 GMT 44.112808 -1.086561 18,050 21 374 1536
2022-05-21 12:40:59 GMT 44.096420 -1.095363 17,800 21 370 1536
2022-05-21 12:40:49 GMT 44.079849 -1.104191 17,525 21 366 1728
2022-05-21 12:40:38 GMT 44.064114 -1.112627 17,225 21 364 1920
2022-05-21 12:40:28 GMT 44.048428 -1.120998 16,875 20 363 2048
2022-05-21 12:40:19 GMT 44.033066 -1.129165 16,550 21 361 2048
2022-05-21 12:40:08 GMT 44.016815 -1.137851 16,175 21 359 2304
2022-05-21 12:39:59 GMT 44.000988 -1.146306 15,775 21 359 2368
2022-05-21 12:39:48 GMT 43.977993 -1.158600 15,225 21 358 2176
2022-05-21 12:39:38 GMT 43.969379 -1.163177 15,025 21 358 2304
2022-05-21 12:39:28 GMT 43.953785 -1.171483 14,625 20 357 2176
2022-05-21 12:39:18 GMT 43.922745 -1.187993 13,975 21 355 2368
2022-05-21 12:39:08 GMT 43.922745 -1.187993 13,825 21 354 2240
2022-05-21 12:39:05 GMT 43.919586 -1.189653 13,825 21 354 2240
2022-05-21 12:38:57 GMT 43.906128 -1.196807 13,550 21 350 1600
2022-05-21 12:38:48 GMT 43.892807 -1.203897 13,225 21 345 2240
2022-05-21 12:38:39 GMT 43.877579 -1.211962 13,225 21 345 2240
2022-05-21 12:38:36 GMT 43.862728 -1.219940 11,675 21 344 2432
2022-05-21 12:38:28 GMT 43.862728 -1.219940 12,525 21 344 2496
2022-05-21 12:38:17 GMT 43.847580 -1.227978 11,675 21 342 2560
2022-05-21 12:38:05 GMT 43.828934 -1.237858 11,575 21 341 2368
2022-05-21 12:37:57 GMT 43.817154 -1.244136 11,300 21 339 2112
2022-05-21 12:37:47 GMT 43.801884 -1.252180 10,975 20 337 1792
2022-05-21 12:37:36 GMT 43.786942 -1.260093 10,775 20 329 960
2022-05-21 12:37:25 GMT 43.771626 -1.268202 10,625 21 320 896
2022-05-21 12:37:16 GMT 43.758362 -1.275244 10,400 20 308 1984
2022-05-21 12:37:05 GMT 43.744629 -1.282398 10,075 20 302 2560
2022-05-21 12:36:55 GMT 43.731220 -1.289520 9,650 21 303 2688
2022-05-21 12:36:45 GMT 43.717896 -1.296578 9,225 20 301 2432
2022-05-21 12:36:34 GMT 43.703842 -1.303988 8,775 20 299 2496
2022-05-21 12:36:24 GMT 43.690887 -1.310822 8,375 20 298 2432
2022-05-21 12:36:13 GMT 43.677521 -1.317848 7,950 20 297 2432
2022-05-21 12:36:03 GMT 43.664371 -1.324768 7,550 21 295 2432
2022-05-21 12:35:54 GMT 43.651978 -1.331326 7,125 20 293 2432
2022-05-21 12:35:43 GMT 43.638199 -1.338607 6,675 21 292 2624
2022-05-21 12:35:32 GMT 43.625870 -1.345106 6,225 20 292 2880
2022-05-21 12:35:23 GMT 43.613434 -1.351638 5,750 20 294 2880
2022-05-21 12:35:13 GMT 43.600067 -1.358600 5,275 20 294 2688
2022-05-21 12:35:03 GMT 43.587650 -1.365051 4,925 20 290 1792
2022-05-21 12:34:52 GMT 43.574478 -1.371950 4,675 21 281 1152
2022-05-21 12:34:39 GMT 43.560184 -1.380354 4,325 26 270 2240
2022-05-21 12:34:30 GMT 43.550224 -1.387939 4,025 31 265 1792
2022-05-21 12:34:20 GMT 43.539139 -1.397946 3,850 34 252 448
2022-05-21 12:34:03 GMT 43.524155 -1.412201 3,675 34 235 576
2022-05-21 12:34:01 GMT 43.522480 -1.413836 3,650 34 221 832
2022-05-21 12:33:43 GMT 43.508560 -1.426754 3,525 33 191 576
2022-05-21 12:33:40 GMT 43.506226 -1.428798 3,500 32 188 704
2022-05-21 12:33:30 GMT 43.498398 -1.435504 3,300 29 180 1600

Making use of Plane Finder data

You are free to use the raw flight data, aircraft information and images provided in this report for your own purposes provided the data is correctly attributed to Plane Finder. We ask that you please credit Plane Finder and link to planefinder.net in close proximity to the content.

Optionally one of the following logos (no smaller then 150x24px) can be used and must link to planefinder.net

Embedding the Plane Finder map

You are welcome to embed the Plane Finder playback map on your website to offer visitors a more interactive experience. We suggest using the following HTML code:

<iframe src="//planefinder.net/data/report/AF7657-F-HBLJ-7700-squawk-2022-05-21/map" width="800" height="600" seamless="seamless"></iframe>

Where our data comes from

Plane Finder has a global network of data feeds and antenna radars that receive data broadcast directly from aircraft. The primary technologies used are ADS-B and MLAT. We also show feeds from the FAA and a FLARM glider feed.

Click here to find out more about the Plane Finder network.

How we collect our data